Time;durP1;ratioP1;P1;durP2;ratioP2;P2;SDS_P1;SDS_P2;PMS_P1;PMS_P2;Temp;Humidity;BMP_temperature;BMP_pressure;BME280_temperature;BME280_humidity;BME280_pressure;Samples;Min_cycle;Max_cycle;Signal;HPM_P1;HPM_P2
2022/07/17 00:00:28;;;;;;;0.55;0.10;;;22.00;79.70;;;;;;4946234;28;20506;-78
2022/07/17 00:02:55;;;;;;;0.03;0.03;;;22.20;79.20;;;;;;4944719;28;20031;-75
2022/07/17 00:05:22;;;;;;;0.50;0.10;;;22.20;79.90;;;;;;4947647;28;20038;-77
2022/07/17 00:07:50;;;;;;;0.22;0.10;;;22.40;80.00;;;;;;4941794;29;20479;-79
2022/07/17 00:10:17;;;;;;;0.10;0.10;;;22.50;79.10;;;;;;4940658;28;20452;-75
2022/07/17 00:12:45;;;;;;;0.80;0.10;;;22.40;79.30;;;;;;4944541;29;20031;-75
2022/07/17 00:15:13;;;;;;;0.22;0.10;;;21.80;79.30;;;;;;4945281;29;20031;-79
2022/07/17 00:17:40;;;;;;;0.43;0.20;;;21.70;79.90;;;;;;4950439;29;20097;-77
2022/07/17 00:20:09;;;;;;;0.30;0.20;;;22.00;80.30;;;;;;4952843;29;20042;-77
2022/07/17 00:22:37;;;;;;;0.30;0.10;;;22.20;79.90;;;;;;4949416;29;20031;-80
2022/07/17 00:25:05;;;;;;;2.03;0.10;;;22.30;80.50;;;;;;4947338;28;20024;-77
2022/07/17 00:27:32;;;;;;;0.80;0.13;;;22.50;78.60;;;;;;4945165;28;20023;-80
2022/07/17 00:30:00;;;;;;;0.10;0.08;;;22.30;79.10;;;;;;4952447;28;20481;-81
2022/07/17 00:32:28;;;;;;;2.92;0.20;;;22.50;80.00;;;;;;4936590;28;20036;-80
2022/07/17 00:34:55;;;;;;;1.27;0.22;;;22.80;79.80;;;;;;4934620;29;20052;-78
2022/07/17 00:37:22;;;;;;;0.13;0.10;;;23.30;79.10;;;;;;4945642;29;20027;-79
2022/07/17 00:39:50;;;;;;;3.70;0.10;;;23.10;78.50;;;;;;4945234;29;20046;-79
2022/07/17 00:42:18;;;;;;;0.30;0.20;;;23.10;78.70;;;;;;4940579;28;20040;-77
2022/07/17 00:44:46;;;;;;;0.50;0.10;;;23.00;79.00;;;;;;4949234;28;20163;-76
2022/07/17 00:47:21;;;;;;;0.30;0.20;;;23.10;78.80;;;;;;4945009;28;20035;-78
2022/07/17 00:49:49;;;;;;;0.28;0.10;;;23.50;78.60;;;;;;4947461;28;20131;-79
2022/07/17 00:52:17;;;;;;;3.05;0.20;;;24.00;77.70;;;;;;4951863;29;20050;-81
2022/07/17 00:54:47;;;;;;;0.90;0.40;;;24.60;77.00;;;;;;4948903;28;20053;-78
2022/07/17 00:57:16;;;;;;;0.93;0.40;;;24.50;76.10;;;;;;4944915;28;20066;-79
2022/07/17 00:59:44;;;;;;;3.30;0.40;;;24.30;76.00;;;;;;4945058;28;20031;-78
2022/07/17 01:02:16;;;;;;;0.30;0.10;;;24.30;76.10;;;;;;4941636;29;20486;-78
2022/07/17 01:04:43;;;;;;;0.38;0.20;;;24.70;76.30;;;;;;4946722;29;20039;-78
2022/07/17 01:07:11;;;;;;;2.42;0.13;;;25.00;76.10;;;;;;4942233;29;20027;-77
2022/07/17 01:09:38;;;;;;;0.20;0.15;;;25.50;75.20;;;;;;4941873;29;20035;-78
2022/07/17 01:12:09;;;;;;;0.40;0.20;;;25.40;74.10;;;;;;4942182;29;20470;-80
2022/07/17 01:14:37;;;;;;;0.30;0.10;;;25.40;74.40;;;;;;4949482;29;20065;-78
2022/07/17 01:17:05;;;;;;;0.15;0.10;;;25.40;70.90;;;;;;4938384;29;20051;-78
2022/07/17 01:19:32;;;;;;;0.30;0.05;;;24.60;68.60;;;;;;4942165;28;20031;-80
2022/07/17 01:22:00;;;;;;;0.93;0.20;;;24.20;69.90;;;;;;4942127;28;20082;-78
2022/07/17 01:24:27;;;;;;;1.88;0.20;;;24.50;69.90;;;;;;4947973;28;20031;-79
2022/07/17 01:26:54;;;;;;;0.70;0.10;;;24.60;68.80;;;;;;4942740;29;20043;-82
2022/07/17 01:29:22;;;;;;;0.30;0.10;;;24.60;68.10;;;;;;4946831;29;20031;-79
2022/07/17 01:31:49;;;;;;;0.52;0.00;;;24.60;69.50;;;;;;4950025;28;20120;-78
2022/07/17 01:34:17;;;;;;;0.20;0.20;;;25.00;68.30;;;;;;4953054;29;20043;-73
2022/07/17 01:36:45;;;;;;;0.20;0.10;;;24.60;66.90;;;;;;4949521;29;20046;-80
2022/07/17 01:39:12;;;;;;;0.10;0.10;;;24.50;68.20;;;;;;4943160;28;20035;-80
2022/07/17 01:41:40;;;;;;;0.88;0.10;;;24.60;66.90;;;;;;4950797;29;20047;-80
2022/07/17 01:44:08;;;;;;;1.75;0.00;;;24.30;67.20;;;;;;4953203;28;20038;-78
2022/07/17 01:46:36;;;;;;;1.13;0.17;;;24.60;66.40;;;;;;4948862;29;20035;-79
2022/07/17 01:49:03;;;;;;;0.28;0.10;;;24.60;67.20;;;;;;4950441;28;20035;-79
2022/07/17 01:51:31;;;;;;;0.65;0.65;;;24.90;65.90;;;;;;4948720;29;20024;-76
2022/07/17 01:53:58;;;;;;;0.10;0.10;;;24.90;65.80;;;;;;4951799;29;20036;-75
2022/07/17 01:56:26;;;;;;;0.32;0.13;;;24.70;65.20;;;;;;4946449;28;20050;-81
2022/07/17 01:58:53;;;;;;;2.63;0.25;;;24.50;65.90;;;;;;4949914;28;20039;-78
2022/07/17 02:01:20;;;;;;;1.48;0.10;;;24.70;65.30;;;;;;4945810;28;20031;-79
2022/07/17 02:03:48;;;;;;;0.25;0.10;;;24.80;66.10;;;;;;4950605;29;20035;-82
2022/07/17 02:06:15;;;;;;;0.20;0.10;;;24.90;65.20;;;;;;4944128;29;20178;-81
2022/07/17 02:08:43;;;;;;;0.17;0.10;;;25.10;65.40;;;;;;4949131;29;20035;-83
2022/07/17 02:11:10;;;;;;;0.20;0.10;;;25.70;66.10;;;;;;4950194;29;20061;-82
2022/07/17 02:13:37;;;;;;;0.47;0.10;;;25.40;64.70;;;;;;4939211;29;20064;-79
2022/07/17 02:16:05;;;;;;;0.35;0.20;;;25.10;64.50;;;;;;4951235;29;20101;-82
2022/07/17 02:18:33;;;;;;;1.48;0.10;;;24.90;64.50;;;;;;4955516;29;20029;-81
2022/07/17 02:21:01;;;;;;;0.00;0.00;;;24.50;64.90;;;;;;4951220;28;20039;-82
2022/07/17 02:23:28;;;;;;;0.43;0.10;;;24.10;64.60;;;;;;4955712;29;20488;-81
2022/07/17 02:25:56;;;;;;;0.10;0.05;;;23.70;66.40;;;;;;4954955;28;20489;-79
2022/07/17 02:28:23;;;;;;;0.30;0.10;;;24.20;65.90;;;;;;4955399;28;20023;-80
2022/07/17 02:30:51;;;;;;;1.02;0.10;;;23.60;65.10;;;;;;4953468;29;20049;-80
2022/07/17 02:33:18;;;;;;;4.63;0.17;;;23.10;65.50;;;;;;4954823;28;20046;-86
2022/07/17 02:35:46;;;;;;;0.22;0.10;;;23.10;65.50;;;;;;4943723;28;20071;-83
2022/07/17 02:38:13;;;;;;;1.15;0.10;;;23.10;65.20;;;;;;4951154;29;20027;-78
2022/07/17 02:40:41;;;;;;;1.35;0.15;;;23.20;65.30;;;;;;4952453;28;20031;-80
2022/07/17 02:43:09;;;;;;;0.40;0.10;;;23.10;64.60;;;;;;4953834;29;20078;-79
2022/07/17 02:45:36;;;;;;;0.73;0.15;;;23.30;66.10;;;;;;4953925;29;20710;-82
2022/07/17 02:48:04;;;;;;;0.40;0.10;;;23.90;65.10;;;;;;4950253;29;20118;-81
2022/07/17 02:50:32;;;;;;;0.45;0.10;;;23.80;64.60;;;;;;4953036;29;20071;-79
2022/07/17 02:53:00;;;;;;;0.57;0.13;;;23.70;64.80;;;;;;4953266;29;20035;-80
2022/07/17 02:55:27;;;;;;;6.38;0.20;;;23.60;64.50;;;;;;4955248;28;20054;-80
2022/07/17 02:57:55;;;;;;;2.40;0.10;;;23.20;62.90;;;;;;4950963;29;20027;-85
2022/07/17 03:00:23;;;;;;;0.03;0.00;;;23.10;64.30;;;;;;4954288;28;20058;-82
2022/07/17 03:02:50;;;;;;;1.63;0.00;;;22.90;63.70;;;;;;4951682;28;20106;-82
2022/07/17 03:05:18;;;;;;;0.20;0.17;;;22.50;63.30;;;;;;4954499;28;20434;-78
2022/07/17 03:07:46;;;;;;;0.30;0.20;;;22.50;64.50;;;;;;4940323;29;20031;-81
2022/07/17 03:10:14;;;;;;;0.30;0.10;;;22.60;64.80;;;;;;4953388;29;20035;-79
2022/07/17 03:12:42;;;;;;;0.17;0.17;;;22.50;63.90;;;;;;4950033;28;20027;-84
2022/07/17 03:15:11;;;;;;;0.20;0.00;;;22.30;64.00;;;;;;4948151;28;20043;-84
2022/07/17 03:17:41;;;;;;;2.28;0.10;;;22.50;64.00;;;;;;4949369;28;20086;-82
2022/07/17 03:20:10;;;;;;;1.65;0.13;;;22.50;63.80;;;;;;4954818;29;20103;-82
2022/07/17 03:22:38;;;;;;;0.10;0.10;;;22.40;63.90;;;;;;4946335;29;20031;-82
2022/07/17 03:25:05;;;;;;;0.22;0.10;;;22.30;63.00;;;;;;4950118;28;20035;-81
2022/07/17 03:27:34;;;;;;;0.30;0.10;;;22.20;62.80;;;;;;4951993;29;20023;-88
2022/07/17 03:30:01;;;;;;;0.10;0.10;;;22.20;63.10;;;;;;4955014;29;20027;-81
2022/07/17 03:32:29;;;;;;;0.20;0.05;;;22.10;63.90;;;;;;4948499;29;20026;-79
2022/07/17 03:34:56;;;;;;;0.28;0.10;;;21.90;62.30;;;;;;4953140;29;20461;-78
2022/07/17 03:37:25;;;;;;;1.30;0.10;;;21.60;63.10;;;;;;4945859;28;20027;-85
2022/07/17 03:39:52;;;;;;;0.10;0.00;;;21.40;63.70;;;;;;4942283;29;20031;-82
2022/07/17 03:42:20;;;;;;;0.50;0.17;;;21.20;64.30;;;;;;4951074;28;20051;-81
2022/07/17 03:44:47;;;;;;;0.40;0.20;;;21.10;64.60;;;;;;4950879;28;20034;-81
2022/07/17 03:47:14;;;;;;;0.20;0.00;;;21.00;64.50;;;;;;4951637;28;20085;-77
2022/07/17 03:49:42;;;;;;;3.70;0.10;;;21.00;64.50;;;;;;4947443;29;20474;-80
2022/07/17 03:52:09;;;;;;;0.10;0.10;;;20.80;64.40;;;;;;4949848;29;20051;-83
2022/07/17 03:54:37;;;;;;;0.13;0.10;;;20.70;65.10;;;;;;4950044;28;20071;-82
2022/07/17 03:57:04;;;;;;;0.32;0.10;;;20.70;64.00;;;;;;4944500;29;20039;-82
2022/07/17 03:59:31;;;;;;;0.20;0.10;;;20.60;65.40;;;;;;4953352;29;20485;-82
2022/07/17 04:01:59;;;;;;;1.65;0.15;;;20.60;64.90;;;;;;4949072;28;20374;-82
2022/07/17 04:04:26;;;;;;;0.30;0.20;;;20.60;65.30;;;;;;4954631;28;20027;-82
2022/07/17 04:06:54;;;;;;;0.38;0.10;;;20.60;64.70;;;;;;4950944;28;20363;-85
2022/07/17 04:09:21;;;;;;;0.25;0.10;;;20.60;64.70;;;;;;4953016;28;20119;-82
2022/07/17 04:11:49;;;;;;;0.55;0.08;;;20.50;65.20;;;;;;4953452;29;20035;-80
2022/07/17 04:14:16;;;;;;;1.05;0.15;;;20.60;65.70;;;;;;4945484;28;20115;-89
2022/07/17 04:16:43;;;;;;;0.47;0.10;;;20.60;66.00;;;;;;4940079;28;20040;-85
2022/07/17 04:19:11;;;;;;;0.47;0.35;;;20.60;66.00;;;;;;4946021;29;20026;-77
2022/07/17 04:21:38;;;;;;;0.47;0.10;;;20.60;64.80;;;;;;4952072;29;20086;-80
2022/07/17 04:24:06;;;;;;;0.15;0.10;;;20.60;65.80;;;;;;4952488;28;20467;-82
2022/07/17 04:26:33;;;;;;;0.45;0.10;;;20.60;65.80;;;;;;4949680;29;20098;-81
2022/07/17 04:29:01;;;;;;;0.17;0.10;;;20.60;65.60;;;;;;4947920;28;20027;-82
2022/07/17 04:31:28;;;;;;;0.38;0.15;;;20.50;64.30;;;;;;4952799;29;20501;-80
2022/07/17 04:33:55;;;;;;;0.20;0.13;;;20.50;65.80;;;;;;4950039;28;20217;-79
2022/07/17 04:36:23;;;;;;;0.30;0.10;;;20.50;64.50;;;;;;4946650;28;20066;-80
2022/07/17 04:38:50;;;;;;;0.50;0.17;;;20.50;64.80;;;;;;4949523;29;20043;-79
2022/07/17 04:41:18;;;;;;;0.20;0.10;;;20.50;64.80;;;;;;4950378;29;20023;-80
2022/07/17 04:43:45;;;;;;;0.95;0.52;;;20.40;64.10;;;;;;4952661;29;20036;-81
2022/07/17 04:46:12;;;;;;;0.32;0.10;;;20.40;63.40;;;;;;4946822;29;20161;-81
2022/07/17 04:48:40;;;;;;;0.20;0.10;;;20.30;63.80;;;;;;4950931;29;20397;-79
2022/07/17 04:51:07;;;;;;;0.55;0.13;;;20.30;64.10;;;;;;4949388;29;20386;-77
2022/07/17 04:53:35;;;;;;;0.15;0.10;;;20.30;63.90;;;;;;4950971;29;20108;-82
2022/07/17 04:56:03;;;;;;;0.22;0.10;;;20.30;63.80;;;;;;4949212;29;22118;-80
2022/07/17 04:58:30;;;;;;;0.60;0.00;;;20.30;63.30;;;;;;4948313;29;20027;-83
2022/07/17 05:00:58;;;;;;;0.20;0.00;;;20.40;62.40;;;;;;4948283;28;20036;-80
2022/07/17 05:03:25;;;;;;;1.75;0.30;;;20.30;62.00;;;;;;4948371;29;20028;-78
2022/07/17 05:05:52;;;;;;;0.55;0.10;;;20.30;62.10;;;;;;4949819;28;20454;-79
2022/07/17 05:08:20;;;;;;;0.00;0.00;;;20.30;61.90;;;;;;4951556;29;20027;-80
2022/07/17 05:10:47;;;;;;;0.10;0.00;;;20.30;62.20;;;;;;4951585;29;20038;-85
2022/07/17 05:13:15;;;;;;;0.10;0.00;;;20.30;62.20;;;;;;4948445;29;20027;-76
2022/07/17 05:15:42;;;;;;;0.03;0.00;;;20.20;62.60;;;;;;4950391;29;20039;-82
2022/07/17 05:18:09;;;;;;;0.10;0.00;;;20.20;62.20;;;;;;4950733;28;20070;-80
2022/07/17 05:20:37;;;;;;;0.10;0.00;;;20.20;63.30;;;;;;4943925;28;20389;-85
2022/07/17 05:23:04;;;;;;;0.52;0.43;;;20.20;62.00;;;;;;4945932;29;20031;-78
2022/07/17 05:25:32;;;;;;;0.47;0.10;;;20.10;62.20;;;;;;4949470;29;20101;-77
2022/07/17 05:28:01;;;;;;;0.00;0.00;;;20.20;63.20;;;;;;4950388;28;20039;-81
2022/07/17 05:30:29;;;;;;;0.65;0.40;;;20.10;62.60;;;;;;4944291;29;20032;-80
2022/07/17 05:32:57;;;;;;;0.20;0.10;;;20.10;63.30;;;;;;4945916;28;20097;-81
2022/07/17 05:35:24;;;;;;;0.20;0.10;;;20.00;62.40;;;;;;4949407;28;20034;-79
2022/07/17 05:37:52;;;;;;;0.00;0.00;;;20.00;63.60;;;;;;4946576;29;20059;-78
2022/07/17 05:40:25;;;;;;;1.05;0.30;;;20.00;63.60;;;;;;4950216;28;20035;-80
2022/07/17 05:42:53;;;;;;;1.45;0.10;;;20.00;64.20;;;;;;4942658;29;20108;-80
2022/07/17 05:45:20;;;;;;;0.25;0.00;;;19.90;62.90;;;;;;4948921;29;20031;-80
2022/07/17 05:47:47;;;;;;;0.30;0.10;;;19.90;63.80;;;;;;4949939;29;20073;-76
2022/07/17 05:50:18;;;;;;;0.98;0.10;;;19.80;64.30;;;;;;4950963;28;20082;-78
2022/07/17 05:52:45;;;;;;;0.22;0.10;;;19.90;64.20;;;;;;4948964;29;20085;-75
2022/07/17 05:55:12;;;;;;;0.47;0.10;;;19.80;64.60;;;;;;4945719;28;20039;-79
2022/07/17 05:57:40;;;;;;;0.00;0.00;;;19.90;63.70;;;;;;4950179;28;20054;-80
2022/07/17 06:00:08;;;;;;;2.45;0.15;;;19.90;63.20;;;;;;4951529;29;20086;-78
2022/07/17 06:02:35;;;;;;;2.95;0.10;;;19.90;63.80;;;;;;4939462;29;20078;-75
2022/07/17 06:05:03;;;;;;;0.00;0.00;;;19.90;63.60;;;;;;4952541;29;20381;-80
2022/07/17 06:07:30;;;;;;;0.15;0.10;;;19.90;63.60;;;;;;4948039;29;20117;-80
2022/07/17 06:09:59;;;;;;;2.00;0.10;;;19.80;64.20;;;;;;4949752;29;20758;-77
2022/07/17 06:12:26;;;;;;;0.10;0.00;;;19.80;63.70;;;;;;4940108;28;20035;-76
2022/07/17 06:14:53;;;;;;;1.65;0.10;;;19.80;63.70;;;;;;4951554;29;20964;-75
2022/07/17 06:17:21;;;;;;;0.20;0.10;;;19.80;64.00;;;;;;4949714;28;20039;-78
2022/07/17 06:19:51;;;;;;;1.60;0.10;;;19.80;64.10;;;;;;4952792;29;20470;-78
2022/07/17 06:22:22;;;;;;;0.00;0.00;;;19.80;63.70;;;;;;4950495;29;20276;-77
2022/07/17 06:24:49;;;;;;;0.10;0.00;;;19.70;63.60;;;;;;4951805;29;20495;-79
2022/07/17 06:27:17;;;;;;;1.58;0.43;;;19.80;64.30;;;;;;4938226;29;20032;-79
2022/07/17 06:29:46;;;;;;;0.82;0.25;;;19.70;64.20;;;;;;4950508;29;20038;-76
2022/07/17 06:32:13;;;;;;;0.60;0.30;;;19.70;64.50;;;;;;4949577;29;20086;-80
2022/07/17 06:34:41;;;;;;;0.22;0.20;;;19.60;64.00;;;;;;4949308;29;20134;-79
2022/07/17 06:37:09;;;;;;;0.30;0.20;;;19.50;64.00;;;;;;4942587;29;20039;-84
2022/07/17 06:39:36;;;;;;;1.85;0.43;;;19.40;64.10;;;;;;4952921;28;20031;-82
2022/07/17 06:42:04;;;;;;;0.55;0.30;;;19.40;64.70;;;;;;4942211;29;20044;-85
2022/07/17 06:44:31;;;;;;;2.10;0.20;;;19.20;64.80;;;;;;4948881;29;20433;-78
2022/07/17 06:46:59;;;;;;;1.33;0.10;;;19.10;64.90;;;;;;4939872;28;20474;-88
2022/07/17 06:49:26;;;;;;;0.30;0.10;;;19.00;64.80;;;;;;4953135;28;20466;-87
2022/07/17 06:51:54;;;;;;;0.82;0.20;;;19.00;65.70;;;;;;4952535;29;20024;-88
2022/07/17 06:54:25;;;;;;;0.43;0.17;;;18.90;65.70;;;;;;4944473;28;20042;-88
2022/07/17 06:56:54;;;;;;;0.73;0.20;;;18.70;65.90;;;;;;4952828;29;20043;-84
2022/07/17 06:59:21;;;;;;;0.20;0.10;;;18.60;65.60;;;;;;4954414;29;20027;-80
2022/07/17 07:01:49;;;;;;;1.17;0.80;;;18.50;66.20;;;;;;4948474;29;20042;-82
2022/07/17 07:04:16;;;;;;;1.13;0.45;;;18.50;66.70;;;;;;4952512;29;20039;-83
2022/07/17 07:06:44;;;;;;;0.70;0.20;;;18.40;67.00;;;;;;4950991;28;20062;-83
2022/07/17 07:09:14;;;;;;;0.30;0.10;;;18.30;66.80;;;;;;4950867;28;20043;-77
2022/07/17 07:11:41;;;;;;;0.30;0.10;;;18.20;66.70;;;;;;4954134;29;20143;-81
2022/07/17 07:14:09;;;;;;;0.80;0.22;;;18.20;66.40;;;;;;4943529;28;20032;-83
2022/07/17 07:16:37;;;;;;;0.60;0.30;;;18.10;67.10;;;;;;4945212;29;20130;-82
2022/07/17 07:19:04;;;;;;;0.73;0.30;;;18.00;67.60;;;;;;4946004;28;20435;-82
2022/07/17 07:21:32;;;;;;;0.82;0.43;;;17.90;68.10;;;;;;4953642;29;20039;-82
2022/07/17 07:23:59;;;;;;;0.60;0.40;;;17.70;68.60;;;;;;4954968;28;20039;-84
2022/07/17 07:26:27;;;;;;;0.32;0.20;;;17.40;69.40;;;;;;4949317;29;20036;-84
2022/07/17 07:28:54;;;;;;;0.88;0.32;;;17.50;68.50;;;;;;4944906;28;20386;-80
2022/07/17 07:31:22;;;;;;;1.13;0.40;;;17.50;68.50;;;;;;4952837;29;20035;-80
2022/07/17 07:33:49;;;;;;;0.65;0.30;;;17.50;68.80;;;;;;4953151;28;20578;-80
2022/07/17 07:36:17;;;;;;;0.95;0.30;;;17.50;68.80;;;;;;4952487;29;20046;-82
2022/07/17 07:38:45;;;;;;;2.83;0.32;;;17.50;69.20;;;;;;4943766;28;20035;-81
2022/07/17 07:41:13;;;;;;;1.15;0.45;;;17.40;69.40;;;;;;4953164;28;20040;-80
2022/07/17 07:43:40;;;;;;;1.30;0.47;;;17.30;69.70;;;;;;4951500;29;20031;-82
2022/07/17 07:46:08;;;;;;;0.50;0.20;;;17.20;70.00;;;;;;4952089;29;20045;-81
2022/07/17 07:48:36;;;;;;;0.32;0.10;;;17.10;69.70;;;;;;4952106;29;20035;-80
2022/07/17 07:51:03;;;;;;;0.45;0.22;;;17.10;70.40;;;;;;4951043;29;20034;-82
2022/07/17 07:53:31;;;;;;;0.60;0.30;;;17.10;70.40;;;;;;4941839;28;20050;-82
2022/07/17 07:55:58;;;;;;;1.50;0.30;;;17.00;70.90;;;;;;4949019;28;20047;-83
2022/07/17 07:58:26;;;;;;;1.02;0.30;;;17.00;71.40;;;;;;4942589;28;20110;-83
2022/07/17 08:00:53;;;;;;;0.73;0.20;;;16.80;71.60;;;;;;4948924;28;20131;-83
2022/07/17 08:03:21;;;;;;;0.63;0.30;;;16.70;71.90;;;;;;4944517;29;20530;-78
2022/07/17 08:05:48;;;;;;;0.75;0.40;;;16.60;72.40;;;;;;4952711;28;20110;-82
2022/07/17 08:08:16;;;;;;;0.75;0.35;;;16.50;72.90;;;;;;4951782;29;20082;-79
2022/07/17 08:10:43;;;;;;;2.63;0.40;;;16.30;73.50;;;;;;4949206;29;20031;-79
2022/07/17 08:13:10;;;;;;;1.27;0.60;;;16.20;73.00;;;;;;4945500;28;20062;-80
2022/07/17 08:15:38;;;;;;;1.50;0.57;;;16.10;73.10;;;;;;4952324;29;20449;-79
2022/07/17 08:18:06;;;;;;;1.02;0.57;;;16.10;73.30;;;;;;4942927;29;20035;-80
2022/07/17 08:20:33;;;;;;;1.42;0.40;;;16.10;73.80;;;;;;4950622;28;20486;-80
2022/07/17 08:23:01;;;;;;;3.42;0.40;;;16.10;73.60;;;;;;4945440;29;20122;-80
2022/07/17 08:25:28;;;;;;;1.20;0.60;;;16.10;73.30;;;;;;4951362;29;20027;-81
2022/07/17 08:27:56;;;;;;;4.63;1.30;;;16.10;73.20;;;;;;4945486;29;20045;-79
2022/07/17 08:30:23;;;;;;;1.75;1.00;;;16.10;73.40;;;;;;4948841;28;20386;-85
2022/07/17 08:32:50;;;;;;;0.70;0.32;;;16.00;73.90;;;;;;4947080;28;20417;-81
2022/07/17 08:35:18;;;;;;;2.80;0.68;;;16.00;73.80;;;;;;4951213;29;20390;-79
2022/07/17 08:37:49;;;;;;;1.00;0.30;;;15.90;74.00;;;;;;4947711;28;20042;-79
2022/07/17 08:40:25;;;;;;;1.77;0.22;;;15.80;73.90;;;;;;4945312;29;20061;-78
2022/07/17 08:42:54;;;;;;;0.60;0.25;;;15.90;74.60;;;;;;4938408;29;20031;-80
2022/07/17 08:45:22;;;;;;;1.45;0.77;;;15.90;74.30;;;;;;4943179;28;20023;-80
2022/07/17 08:47:52;;;;;;;0.70;0.25;;;15.90;74.70;;;;;;4942165;29;20036;-81
2022/07/17 08:50:34;;;;;;;4.07;1.17;;;15.80;74.30;;;;;;4953793;29;20126;-81
2022/07/17 08:53:03;;;;;;;2.47;0.73;;;15.90;74.30;;;;;;4950362;29;20391;-81
2022/07/17 08:55:33;;;;;;;0.35;0.28;;;15.90;74.50;;;;;;4952108;29;20114;-78
2022/07/17 08:58:01;;;;;;;1.45;0.80;;;15.90;74.50;;;;;;4948860;29;20043;-79
2022/07/17 09:00:29;;;;;;;5.78;0.43;;;15.90;74.70;;;;;;4950630;28;20031;-82
2022/07/17 09:02:58;;;;;;;0.75;0.32;;;15.90;74.80;;;;;;4938862;29;20086;-81
2022/07/17 09:05:31;;;;;;;0.70;0.50;;;15.90;75.00;;;;;;4950164;28;20031;-81
2022/07/17 09:07:59;;;;;;;1.05;0.40;;;15.80;75.30;;;;;;4949944;29;20118;-78
2022/07/17 09:10:35;;;;;;;1.27;0.65;;;15.90;75.10;;;;;;4948905;29;20110;-80
2022/07/17 09:13:21;;;;;;;2.53;0.50;;;15.90;75.30;;;;;;4947296;28;20185;-80
2022/07/17 09:15:51;;;;;;;2.17;0.45;;;15.80;75.10;;;;;;4953018;29;20030;-79
2022/07/17 09:18:19;;;;;;;1.23;0.93;;;15.90;74.90;;;;;;4944899;29;20039;-81
2022/07/17 09:20:53;;;;;;;1.20;0.63;;;15.80;75.30;;;;;;4952619;29;20074;-80
2022/07/17 09:23:22;;;;;;;0.60;0.30;;;15.80;75.50;;;;;;4945189;29;20039;-81
2022/07/17 09:25:53;;;;;;;0.85;0.30;;;15.70;75.60;;;;;;4947755;29;20109;-77
2022/07/17 09:28:20;;;;;;;3.05;0.77;;;15.80;75.50;;;;;;4949138;29;20102;-80
2022/07/17 09:30:51;;;;;;;0.95;0.65;;;15.80;75.80;;;;;;4950425;29;20035;-79
2022/07/17 09:33:29;;;;;;;0.85;0.38;;;15.70;75.70;;;;;;4948123;29;20123;-79
2022/07/17 09:36:09;;;;;;;0.55;0.22;;;15.80;75.80;;;;;;4947469;28;20047;-80
2022/07/17 09:38:42;;;;;;;1.33;0.32;;;15.80;76.10;;;;;;4948137;29;20443;-80
2022/07/17 09:41:15;;;;;;;0.63;0.50;;;15.80;76.20;;;;;;4945206;29;20039;-76
2022/07/17 09:43:54;;;;;;;1.40;0.20;;;15.80;75.80;;;;;;4947148;29;20079;-79
2022/07/17 09:46:23;;;;;;;2.05;0.57;;;15.80;76.20;;;;;;4937486;28;20042;-77
2022/07/17 09:48:56;;;;;;;1.48;0.20;;;15.80;76.30;;;;;;4950149;29;20482;-77
2022/07/17 09:51:26;;;;;;;2.45;0.40;;;15.70;76.20;;;;;;4946204;29;20039;-79
2022/07/17 09:53:59;;;;;;;2.60;1.15;;;15.70;76.50;;;;;;4941330;29;20110;-80
2022/07/17 09:56:29;;;;;;;1.63;0.30;;;15.70;76.90;;;;;;4950444;29;20453;-78
2022/07/17 09:59:01;;;;;;;0.85;0.40;;;15.70;77.00;;;;;;4950514;29;20050;-78
2022/07/17 10:01:28;;;;;;;0.60;0.28;;;15.70;76.80;;;;;;4942257;29;20043;-80
2022/07/17 10:03:56;;;;;;;0.35;0.30;;;15.70;76.90;;;;;;4947878;29;20058;-77
2022/07/17 10:06:25;;;;;;;0.43;0.10;;;15.60;77.10;;;;;;4931689;29;20035;-78
2022/07/17 10:08:54;;;;;;;0.57;0.20;;;15.70;77.30;;;;;;4947158;29;20395;-77
2022/07/17 10:11:25;;;;;;;2.63;0.30;;;15.60;77.60;;;;;;4939056;28;20693;-79
2022/07/17 10:13:55;;;;;;;1.45;0.85;;;15.50;77.90;;;;;;4941374;29;20087;-78
2022/07/17 10:16:28;;;;;;;0.80;0.10;;;15.50;77.80;;;;;;4939017;29;20127;-78
2022/07/17 10:18:57;;;;;;;0.30;0.20;;;15.50;78.30;;;;;;4947512;29;20027;-81
2022/07/17 10:21:26;;;;;;;0.40;0.38;;;15.50;77.90;;;;;;4949743;28;20039;-81
2022/07/17 10:23:54;;;;;;;0.40;0.10;;;15.60;78.20;;;;;;4953068;29;20190;-80
2022/07/17 10:26:43;;;;;;;0.40;0.30;;;15.60;78.50;;;;;;4946452;29;20038;-81
2022/07/17 10:29:35;;;;;;;0.50;0.35;;;15.50;78.60;;;;;;4952313;29;20039;-79
2022/07/17 10:32:08;;;;;;;1.85;0.35;;;15.60;79.00;;;;;;4950803;28;20024;-76
2022/07/17 10:34:40;;;;;;;1.10;0.20;;;15.50;79.20;;;;;;4954030;29;20062;-75
2022/07/17 10:37:24;;;;;;;2.45;0.55;;;15.50;79.40;;;;;;4949021;28;20043;-77
2022/07/17 10:40:11;;;;;;;0.77;0.40;;;15.60;79.40;;;;;;4943174;29;20046;-75
2022/07/17 10:42:48;;;;;;;0.38;0.22;;;15.60;79.70;;;;;;4945807;29;20067;-78
2022/07/17 10:45:19;;;;;;;0.57;0.30;;;15.60;80.00;;;;;;4953188;29;20059;-81
2022/07/17 10:47:58;;;;;;;0.70;0.35;;;15.70;79.90;;;;;;4948764;28;20027;-79
2022/07/17 10:50:30;;;;;;;1.20;0.40;;;15.70;80.10;;;;;;4952064;29;20058;-80
2022/07/17 10:53:05;;;;;;;0.63;0.40;;;15.70;80.30;;;;;;4951912;29;20103;-77
2022/07/17 10:55:33;;;;;;;1.13;0.40;;;15.70;80.60;;;;;;4954135;29;20031;-77
2022/07/17 10:58:01;;;;;;;0.55;0.50;;;15.80;80.50;;;;;;4952353;29;20102;-80
2022/07/17 11:00:29;;;;;;;0.47;0.30;;;15.70;80.70;;;;;;4946372;29;20023;-77
2022/07/17 11:02:57;;;;;;;0.60;0.30;;;15.80;80.70;;;;;;4950119;28;20501;-79
2022/07/17 11:05:24;;;;;;;0.43;0.25;;;15.80;80.80;;;;;;4953200;29;20125;-80
2022/07/17 11:08:01;;;;;;;0.88;0.30;;;15.70;80.90;;;;;;4950563;29;20033;-78
2022/07/17 11:10:29;;;;;;;0.75;0.30;;;15.80;80.70;;;;;;4950737;29;20035;-79
2022/07/17 11:13:09;;;;;;;3.75;0.57;;;15.90;80.80;;;;;;4947920;29;20031;-80
2022/07/17 11:15:45;;;;;;;1.23;0.47;;;15.90;81.20;;;;;;4947454;28;20035;-80
2022/07/17 11:18:22;;;;;;;0.80;0.52;;;15.80;81.30;;;;;;4944848;28;20027;-79
2022/07/17 11:20:51;;;;;;;2.13;0.60;;;15.70;81.80;;;;;;4946266;29;20043;-79
2022/07/17 11:23:20;;;;;;;1.95;0.50;;;15.60;81.80;;;;;;4948096;28;20023;-77
2022/07/17 11:26:06;;;;;;;2.50;0.57;;;15.70;82.10;;;;;;4944690;28;20525;-82
2022/07/17 11:28:38;;;;;;;2.33;0.50;;;15.60;82.00;;;;;;4946984;28;20034;-82
2022/07/17 11:31:20;;;;;;;1.08;0.70;;;15.60;82.30;;;;;;4943717;28;20028;-81
2022/07/17 11:33:49;;;;;;;3.03;1.40;;;15.60;82.40;;;;;;4946943;28;20093;-83
2022/07/17 11:36:31;;;;;;;2.70;0.70;;;15.50;83.10;;;;;;4950648;28;20043;-80
2022/07/17 11:39:10;;;;;;;0.73;0.35;;;15.50;83.00;;;;;;4948108;28;21490;-82
2022/07/17 11:41:40;;;;;;;0.57;0.40;;;15.50;83.00;;;;;;4947082;29;20046;-83
2022/07/17 11:44:12;;;;;;;1.90;0.30;;;15.50;83.40;;;;;;4949897;29;20031;-81
2022/07/17 11:46:47;;;;;;;2.63;0.57;;;15.30;83.60;;;;;;4929796;29;20055;-80
2022/07/17 11:49:33;;;;;;;2.28;0.30;;;15.30;84.00;;;;;;4943464;29;20031;-76
2022/07/17 11:52:08;;;;;;;1.02;0.40;;;15.20;84.20;;;;;;4943507;29;20019;-80
2022/07/17 11:54:56;;;;;;;1.33;0.47;;;15.10;84.40;;;;;;4951085;28;20035;-76
2022/07/17 11:57:26;;;;;;;0.93;0.40;;;15.00;84.90;;;;;;4950893;28;20046;-76
2022/07/17 11:59:56;;;;;;;1.50;0.40;;;14.90;84.90;;;;;;4951105;28;20118;-76
2022/07/17 12:02:31;;;;;;;2.47;0.82;;;14.90;85.10;;;;;;4937978;29;20127;-78
2022/07/17 12:05:00;;;;;;;2.22;0.50;;;14.80;85.60;;;;;;4951592;29;20066;-77
2022/07/17 12:07:45;;;;;;;0.65;0.40;;;14.70;86.00;;;;;;4948503;29;20474;-76
2022/07/17 12:10:25;;;;;;;2.00;0.47;;;14.60;86.20;;;;;;4948027;29;20043;-76
2022/07/17 12:13:05;;;;;;;0.17;0.17;;;14.70;86.40;;;;;;4948062;28;20549;-78
2022/07/17 12:15:44;;;;;;;2.92;0.38;;;14.70;86.50;;;;;;4935924;29;20504;-77
2022/07/17 12:18:29;;;;;;;1.70;0.20;;;14.70;86.50;;;;;;4947482;29;20389;-77
2022/07/17 12:20:59;;;;;;;0.75;0.30;;;14.60;86.50;;;;;;4952147;29;20024;-76
2022/07/17 12:23:35;;;;;;;0.50;0.30;;;14.60;87.10;;;;;;4949722;29;20135;-76
2022/07/17 12:26:12;;;;;;;0.40;0.20;;;14.60;87.00;;;;;;4943768;29;20043;-76
2022/07/17 12:28:40;;;;;;;0.73;0.30;;;14.60;87.30;;;;;;4949768;29;20615;-77
2022/07/17 12:31:09;;;;;;;0.47;0.30;;;14.50;87.50;;;;;;4946910;29;20043;-80
2022/07/17 12:33:36;;;;;;;1.40;0.40;;;14.50;87.80;;;;;;4945312;28;20059;-76
2022/07/17 12:36:04;;;;;;;1.45;0.40;;;14.50;88.00;;;;;;4944816;29;20061;-77
2022/07/17 12:38:32;;;;;;;1.95;0.40;;;14.50;88.40;;;;;;4937171;28;20031;-76
2022/07/17 12:40:59;;;;;;;0.60;0.30;;;14.50;88.10;;;;;;4945137;29;20027;-77
2022/07/17 12:43:27;;;;;;;2.03;0.20;;;14.50;88.80;;;;;;4948530;29;20433;-77
2022/07/17 12:45:54;;;;;;;1.00;0.47;;;14.40;88.50;;;;;;4950359;28;20031;-79
2022/07/17 12:48:22;;;;;;;0.60;0.40;;;14.40;88.70;;;;;;4945039;29;20027;-78
2022/07/17 12:50:49;;;;;;;0.68;0.30;;;14.50;88.80;;;;;;4949558;29;20027;-76
2022/07/17 12:53:17;;;;;;;0.60;0.35;;;14.40;88.80;;;;;;4948883;29;20101;-77
2022/07/17 12:55:44;;;;;;;1.73;0.25;;;14.50;88.80;;;;;;4950007;29;20043;-76
2022/07/17 12:58:12;;;;;;;0.63;0.28;;;14.40;89.20;;;;;;4943468;29;20055;-77